Time;durP1;ratioP1;P1;durP2;ratioP2;P2;SDS_P1;SDS_P2;PMS_P1;PMS_P2;Temp;Humidity;BMP_temperature;BMP_pressure;BME280_temperature;BME280_humidity;BME280_pressure;Samples;Min_cycle;Max_cycle;Signal;HPM_P1;HPM_P2
2022/09/24 00:01:18;;;;;;;18.77;16.93;;;13.60;99.90;;;;;;5089975;28;20457;-67
2022/09/24 00:03:50;;;;;;;20.00;18.17;;;13.50;99.90;;;;;;5089393;28;20780;-67
2022/09/24 00:06:18;;;;;;;17.27;15.47;;;13.50;99.90;;;;;;5095087;28;20498;-68
2022/09/24 00:08:46;;;;;;;22.13;17.90;;;13.50;99.90;;;;;;5093036;28;20490;-69
2022/09/24 00:11:13;;;;;;;22.93;17.80;;;13.40;99.90;;;;;;5089333;28;20519;-67
2022/09/24 00:13:41;;;;;;;20.30;17.53;;;13.30;99.90;;;;;;5090616;28;20461;-69
2022/09/24 00:16:10;;;;;;;18.80;16.90;;;13.30;99.90;;;;;;5090933;28;20487;-68
2022/09/24 00:18:39;;;;;;;18.10;16.37;;;13.20;99.90;;;;;;5093364;28;20465;-68
2022/09/24 00:21:15;;;;;;;18.93;17.20;;;13.20;99.90;;;;;;5089377;28;20461;-68
2022/09/24 00:23:43;;;;;;;19.70;17.67;;;13.30;99.90;;;;;;5090757;28;20464;-68
2022/09/24 00:28:56;;;;;;;19.13;17.17;;;13.20;99.90;;;;;;5093111;28;20542;-68
2022/09/24 00:31:24;;;;;;;18.87;17.10;;;13.10;99.90;;;;;;5092442;28;20541;-69
2022/09/24 00:33:53;;;;;;;20.17;18.10;;;13.10;99.90;;;;;;5091577;28;20964;-69
2022/09/24 00:36:22;;;;;;;18.57;16.67;;;13.10;99.90;;;;;;5088967;28;21012;-67
2022/09/24 00:38:51;;;;;;;20.00;17.60;;;13.10;99.90;;;;;;5090782;28;20984;-69
2022/09/24 00:41:20;;;;;;;29.93;18.70;;;13.10;99.90;;;;;;5092888;28;20465;-68
2022/09/24 00:43:48;;;;;;;20.60;18.60;;;13.10;99.90;;;;;;5091568;28;20987;-68
2022/09/24 00:46:19;;;;;;;20.80;17.80;;;13.20;99.90;;;;;;5089630;28;20466;-68
2022/09/24 00:48:48;;;;;;;25.00;19.10;;;13.20;99.90;;;;;;5086737;28;20956;-68
2022/09/24 00:51:20;;;;;;;20.47;17.97;;;13.30;99.90;;;;;;5092968;28;20461;-69
2022/09/24 00:53:50;;;;;;;24.43;19.93;;;13.40;99.90;;;;;;5093227;28;20461;-68
2022/09/24 00:56:19;;;;;;;20.57;18.47;;;13.50;99.90;;;;;;5093430;28;20502;-68
2022/09/24 00:58:51;;;;;;;19.77;17.77;;;13.50;99.90;;;;;;5092498;28;20495;-70
2022/09/24 01:01:19;;;;;;;21.97;19.47;;;13.50;99.90;;;;;;5091224;28;20458;-70
2022/09/24 01:03:49;;;;;;;20.90;18.70;;;13.30;99.90;;;;;;5092139;28;20663;-68
2022/09/24 01:06:17;;;;;;;19.30;17.37;;;13.30;99.90;;;;;;5095960;28;20466;-68
2022/09/24 01:08:45;;;;;;;32.93;17.73;;;13.40;99.90;;;;;;5092840;28;20465;-68
2022/09/24 01:11:25;;;;;;;22.80;18.10;;;13.50;99.90;;;;;;5093062;28;20486;-68
2022/09/24 01:14:39;;;;;;;23.43;18.00;;;13.50;99.90;;;;;;5091492;28;20466;-69
2022/09/24 01:17:14;;;;;;;19.10;16.90;;;13.50;99.90;;;;;;5074340;28;20470;-69
2022/09/24 01:20:08;;;;;;;21.60;17.87;;;13.50;99.90;;;;;;5096255;28;20468;-70
2022/09/24 01:22:50;;;;;;;23.50;16.97;;;13.40;99.90;;;;;;5097044;28;20461;-69
2022/09/24 01:25:26;;;;;;;24.77;18.07;;;13.40;99.90;;;;;;5092900;28;20806;-69
2022/09/24 01:28:09;;;;;;;22.87;19.20;;;13.30;99.90;;;;;;5096466;28;20485;-68
2022/09/24 01:30:41;;;;;;;22.60;18.10;;;13.30;99.90;;;;;;5091668;28;20465;-70
2022/09/24 01:33:13;;;;;;;20.20;17.63;;;13.30;99.90;;;;;;5093230;28;20497;-68
2022/09/24 01:35:44;;;;;;;23.97;18.77;;;13.30;99.90;;;;;;5091829;28;20461;-68
2022/09/24 01:38:17;;;;;;;19.97;17.90;;;13.20;99.90;;;;;;5091417;28;20464;-70
2022/09/24 01:40:46;;;;;;;19.93;17.23;;;13.10;99.90;;;;;;5102766;28;20460;-68
2022/09/24 01:43:16;;;;;;;22.07;18.93;;;13.00;99.90;;;;;;5093057;28;20877;-68
2022/09/24 01:45:45;;;;;;;21.63;18.10;;;13.00;99.90;;;;;;5099268;28;20463;-68
2022/09/24 01:48:13;;;;;;;20.60;18.50;;;12.90;99.90;;;;;;5096978;28;20470;-70
2022/09/24 01:50:44;;;;;;;21.57;19.30;;;12.80;99.90;;;;;;5098886;28;20488;-69
2022/09/24 01:53:18;;;;;;;17.70;16.10;;;12.80;99.90;;;;;;5097457;28;20501;-68
2022/09/24 01:55:48;;;;;;;24.13;18.40;;;12.80;99.90;;;;;;5100864;28;20465;-70
2022/09/24 01:58:21;;;;;;;24.80;19.20;;;12.80;99.90;;;;;;5090780;28;20466;-69
2022/09/24 02:00:56;;;;;;;27.40;20.10;;;12.80;99.90;;;;;;5099287;28;20573;-68
2022/09/24 02:03:28;;;;;;;20.77;18.80;;;12.90;99.90;;;;;;5092012;28;20453;-68
2022/09/24 02:06:02;;;;;;;21.10;18.13;;;13.00;99.90;;;;;;5095219;28;20576;-68
2022/09/24 02:08:33;;;;;;;20.80;18.70;;;13.00;99.90;;;;;;5090882;28;20458;-68
2022/09/24 02:11:05;;;;;;;23.33;20.87;;;13.00;99.90;;;;;;5095974;28;20844;-67
2022/09/24 02:13:38;;;;;;;21.97;18.03;;;13.10;99.90;;;;;;5092296;28;20478;-69
2022/09/24 02:16:11;;;;;;;27.47;19.10;;;13.10;99.90;;;;;;5091472;28;20458;-68
2022/09/24 02:18:41;;;;;;;21.17;18.40;;;13.10;99.90;;;;;;5091793;28;20894;-70
2022/09/24 02:21:11;;;;;;;18.80;17.00;;;13.10;99.90;;;;;;5098294;28;20975;-70
2022/09/24 02:23:44;;;;;;;21.93;19.57;;;13.00;99.90;;;;;;5094726;28;20543;-69
2022/09/24 02:26:11;;;;;;;22.63;19.80;;;13.00;99.90;;;;;;5092231;28;20514;-67
2022/09/24 02:28:38;;;;;;;28.67;22.23;;;12.90;99.90;;;;;;5090569;28;20484;-69
2022/09/24 02:31:09;;;;;;;25.57;21.17;;;12.80;99.90;;;;;;5092866;28;20453;-68
2022/09/24 02:36:24;;;;;;;23.30;20.00;;;12.80;99.90;;;;;;5092282;28;20497;-70
2022/09/24 02:38:51;;;;;;;22.67;20.37;;;12.80;99.90;;;;;;5096026;28;20501;-67
2022/09/24 02:41:19;;;;;;;24.70;18.03;;;12.80;99.90;;;;;;5093083;28;20458;-69
2022/09/24 02:43:46;;;;;;;23.83;20.97;;;12.70;99.90;;;;;;5099490;28;20545;-69
2022/09/24 02:46:14;;;;;;;26.30;22.30;;;12.70;99.90;;;;;;5093935;28;20519;-68
2022/09/24 02:48:41;;;;;;;24.17;21.60;;;12.80;99.90;;;;;;5091904;28;20979;-67
2022/09/24 02:51:09;;;;;;;21.70;19.40;;;12.80;99.90;;;;;;5093562;28;20465;-67
2022/09/24 02:53:35;;;;;;;27.63;21.30;;;12.80;99.90;;;;;;5091592;28;20492;-70
2022/09/24 02:56:03;;;;;;;27.40;20.83;;;12.70;99.90;;;;;;5091814;28;20519;-67
2022/09/24 02:58:31;;;;;;;21.13;18.83;;;12.80;99.90;;;;;;5092063;28;20507;-68
2022/09/24 03:00:58;;;;;;;26.67;19.23;;;12.80;99.90;;;;;;5087633;28;20534;-69
2022/09/24 03:03:27;;;;;;;33.60;22.10;;;12.80;99.90;;;;;;5095886;28;20466;-67
2022/09/24 03:05:54;;;;;;;25.43;20.50;;;12.90;99.90;;;;;;5095934;28;21213;-67
2022/09/24 03:08:23;;;;;;;24.23;19.37;;;12.90;99.90;;;;;;5091641;28;20462;-67
2022/09/24 03:10:50;;;;;;;29.83;22.50;;;13.00;99.90;;;;;;5097450;28;20470;-67
2022/09/24 03:13:18;;;;;;;25.93;20.57;;;13.00;99.90;;;;;;5095337;28;20492;-67
2022/09/24 03:15:45;;;;;;;23.00;20.40;;;13.00;99.90;;;;;;5088560;28;20817;-67
2022/09/24 03:18:12;;;;;;;29.63;21.50;;;12.90;99.90;;;;;;5092643;28;20476;-67
2022/09/24 03:20:41;;;;;;;27.63;20.70;;;12.90;99.90;;;;;;5097398;28;20481;-69
2022/09/24 03:23:08;;;;;;;30.07;21.90;;;12.80;99.90;;;;;;5092894;28;21126;-69
2022/09/24 03:25:36;;;;;;;29.53;20.87;;;12.80;99.90;;;;;;5090159;28;20462;-69
2022/09/24 03:28:03;;;;;;;27.07;21.10;;;12.80;99.90;;;;;;5090980;28;20543;-67
2022/09/24 03:33:15;;;;;;;36.43;20.10;;;12.70;99.90;;;;;;5088556;28;20484;-67
2022/09/24 03:35:43;;;;;;;28.73;22.23;;;12.70;99.90;;;;;;5090600;28;20499;-67
2022/09/24 03:38:10;;;;;;;29.70;21.73;;;12.70;99.90;;;;;;5089604;28;20488;-67
2022/09/24 03:40:37;;;;;;;33.80;21.60;;;12.70;99.90;;;;;;5089430;28;20524;-67
2022/09/24 03:43:04;;;;;;;32.97;21.30;;;12.60;99.90;;;;;;5094426;28;20464;-67
2022/09/24 03:45:31;;;;;;;30.33;21.07;;;12.60;99.90;;;;;;5093750;28;20480;-68
2022/09/24 03:47:58;;;;;;;30.57;23.63;;;12.60;99.90;;;;;;5094854;28;20842;-67
2022/09/24 03:50:24;;;;;;;38.17;24.00;;;12.70;99.90;;;;;;5087304;28;20461;-67
2022/09/24 03:52:53;;;;;;;34.60;24.87;;;12.70;99.90;;;;;;5095013;28;20955;-67
2022/09/24 03:55:20;;;;;;;30.67;23.20;;;12.80;99.90;;;;;;5088102;28;20457;-67
2022/09/24 03:57:47;;;;;;;30.40;23.47;;;12.80;99.90;;;;;;5089317;28;20929;-68
2022/09/24 04:00:14;;;;;;;28.80;25.00;;;12.70;99.90;;;;;;5091023;28;20976;-67
2022/09/24 04:02:41;;;;;;;30.33;24.67;;;12.70;99.90;;;;;;5091272;28;20462;-67
2022/09/24 04:05:09;;;;;;;26.23;21.93;;;12.80;99.90;;;;;;5092908;28;20539;-67
2022/09/24 04:07:36;;;;;;;28.53;23.50;;;12.70;99.90;;;;;;5094809;28;20493;-67
2022/09/24 04:10:05;;;;;;;24.77;22.00;;;12.70;99.90;;;;;;5088812;28;20452;-67
2022/09/24 04:12:32;;;;;;;27.60;22.00;;;12.80;99.90;;;;;;5090703;28;20462;-68
2022/09/24 04:15:01;;;;;;;34.67;22.60;;;12.80;99.90;;;;;;5092369;28;20457;-68
2022/09/24 04:17:30;;;;;;;27.90;23.47;;;12.80;99.90;;;;;;5087394;28;20857;-69
2022/09/24 04:19:57;;;;;;;26.37;23.37;;;12.90;99.90;;;;;;5092015;28;20551;-67
2022/09/24 04:22:24;;;;;;;27.17;21.00;;;12.90;99.90;;;;;;5092055;28;20457;-67
2022/09/24 04:24:52;;;;;;;25.23;21.60;;;12.80;99.90;;;;;;5091096;28;20465;-69
2022/09/24 04:27:21;;;;;;;28.97;22.17;;;12.80;99.90;;;;;;5096436;28;20544;-68
2022/09/24 04:29:48;;;;;;;27.60;22.73;;;12.70;99.90;;;;;;5095012;28;20465;-67
2022/09/24 04:32:15;;;;;;;32.33;21.83;;;12.70;99.90;;;;;;5091515;28;20460;-68
2022/09/24 04:34:42;;;;;;;29.53;20.53;;;12.80;99.90;;;;;;5089373;28;20490;-69
2022/09/24 04:37:09;;;;;;;34.50;22.20;;;12.80;99.90;;;;;;5090767;28;20850;-67
2022/09/24 04:39:36;;;;;;;29.27;22.40;;;12.80;99.90;;;;;;5090872;28;20523;-69
2022/09/24 04:42:03;;;;;;;30.03;20.10;;;12.80;99.90;;;;;;5096928;28;20462;-69
2022/09/24 04:44:31;;;;;;;30.93;20.60;;;12.80;99.90;;;;;;5091870;28;20473;-67
2022/09/24 04:47:02;;;;;;;38.63;22.40;;;12.90;99.90;;;;;;5099526;28;20465;-69
2022/09/24 04:49:29;;;;;;;31.00;20.60;;;12.90;99.90;;;;;;5091029;28;20461;-67
2022/09/24 04:51:57;;;;;;;32.40;21.03;;;12.90;99.90;;;;;;5092392;28;20449;-68
2022/09/24 04:54:25;;;;;;;34.67;21.13;;;12.90;99.90;;;;;;5091659;28;20489;-68
2022/09/24 04:56:52;;;;;;;32.80;20.37;;;12.90;99.90;;;;;;5093125;28;20500;-69
2022/09/24 04:59:19;;;;;;;28.87;19.37;;;12.90;99.90;;;;;;5090902;28;20515;-69
2022/09/24 05:01:48;;;;;;;33.73;20.00;;;12.90;99.90;;;;;;5092383;28;20998;-67
2022/09/24 05:04:15;;;;;;;27.07;18.20;;;12.90;99.90;;;;;;5090632;28;20454;-69
2022/09/24 05:06:42;;;;;;;29.70;19.77;;;12.80;99.90;;;;;;5096439;28;20458;-68
2022/09/24 05:09:09;;;;;;;25.37;20.03;;;12.80;99.90;;;;;;5091268;28;20469;-68
2022/09/24 05:11:37;;;;;;;23.37;18.70;;;12.80;99.90;;;;;;5096011;28;21016;-68
2022/09/24 05:14:04;;;;;;;34.43;18.20;;;12.80;99.90;;;;;;5096169;28;21032;-69
2022/09/24 05:16:31;;;;;;;21.63;17.47;;;12.80;99.90;;;;;;5093373;28;20468;-69
2022/09/24 05:19:00;;;;;;;21.70;19.30;;;12.80;99.90;;;;;;5095446;28;20556;-69
2022/09/24 05:21:27;;;;;;;21.60;19.23;;;12.80;99.90;;;;;;5091679;28;20453;-68
2022/09/24 05:23:55;;;;;;;24.17;18.90;;;12.80;99.90;;;;;;5091882;28;20462;-68
2022/09/24 05:29:06;;;;;;;26.53;18.27;;;12.80;99.90;;;;;;5087506;28;20873;-68
2022/09/24 05:31:33;;;;;;;25.23;19.60;;;12.80;99.90;;;;;;5088672;28;20457;-69
2022/09/24 05:34:02;;;;;;;25.60;19.10;;;12.80;99.90;;;;;;5089074;28;20516;-69
2022/09/24 05:36:29;;;;;;;24.30;18.67;;;12.80;99.90;;;;;;5095315;28;20467;-67
2022/09/24 05:38:56;;;;;;;24.30;20.17;;;12.90;99.90;;;;;;5091753;28;20466;-67
2022/09/24 05:41:23;;;;;;;23.60;20.73;;;12.90;99.90;;;;;;5092277;28;20462;-66
2022/09/24 05:43:50;;;;;;;31.50;21.40;;;12.90;99.90;;;;;;5093991;28;20871;-68
2022/09/24 05:46:17;;;;;;;24.40;21.13;;;12.90;99.90;;;;;;5088370;28;20724;-67
2022/09/24 05:48:43;;;;;;;21.87;19.67;;;12.90;99.90;;;;;;5084214;28;20674;-69
2022/09/24 05:51:12;;;;;;;26.97;20.27;;;12.90;99.90;;;;;;5092605;28;20517;-68
2022/09/24 05:53:38;;;;;;;21.37;19.20;;;13.00;99.90;;;;;;5089902;28;20488;-67
2022/09/24 05:56:05;;;;;;;24.23;20.47;;;13.00;99.90;;;;;;5092071;28;20466;-68
2022/09/24 05:58:34;;;;;;;23.37;19.30;;;13.00;99.90;;;;;;5091418;28;20810;-67
2022/09/24 06:01:01;;;;;;;22.03;19.73;;;13.00;99.90;;;;;;5096027;28;20498;-69
2022/09/24 06:03:28;;;;;;;22.10;19.80;;;13.00;99.90;;;;;;5092424;28;20470;-67
2022/09/24 06:05:58;;;;;;;22.33;19.93;;;13.00;99.90;;;;;;5092094;28;20465;-67
2022/09/24 06:08:27;;;;;;;21.50;19.30;;;13.10;99.90;;;;;;5093556;28;21028;-66
2022/09/24 06:10:58;;;;;;;24.70;20.37;;;13.20;99.90;;;;;;5092579;28;20478;-68
2022/09/24 06:13:24;;;;;;;21.80;19.43;;;13.30;99.90;;;;;;5093970;28;20473;-69
2022/09/24 06:15:51;;;;;;;21.67;18.50;;;13.40;99.90;;;;;;5093490;28;20470;-67
2022/09/24 06:18:18;;;;;;;26.10;18.70;;;13.40;99.90;;;;;;5092608;28;20454;-68
2022/09/24 06:20:45;;;;;;;21.93;19.27;;;13.50;99.90;;;;;;5095946;28;20494;-67
2022/09/24 06:23:11;;;;;;;21.63;19.50;;;13.50;99.90;;;;;;5094645;28;20994;-68
2022/09/24 06:25:40;;;;;;;21.40;19.33;;;13.40;99.90;;;;;;5097564;28;20468;-68
2022/09/24 06:28:07;;;;;;;22.27;19.90;;;13.50;99.90;;;;;;5093133;28;20517;-67
2022/09/24 06:30:37;;;;;;;32.83;21.97;;;13.60;99.90;;;;;;5092870;28;20469;-68
2022/09/24 06:33:05;;;;;;;21.40;19.30;;;13.70;99.90;;;;;;5083464;28;21161;-67
2022/09/24 06:35:35;;;;;;;24.43;21.13;;;13.80;99.90;;;;;;5087775;28;20472;-69
2022/09/24 06:38:02;;;;;;;26.40;19.13;;;13.90;99.90;;;;;;5094563;28;20520;-67
2022/09/24 06:40:29;;;;;;;23.17;20.77;;;14.00;99.90;;;;;;5089758;28;20480;-70
2022/09/24 06:42:58;;;;;;;27.97;21.47;;;14.20;99.90;;;;;;5094903;28;20461;-66
2022/09/24 06:45:26;;;;;;;24.47;21.97;;;14.30;99.90;;;;;;5094257;28;20470;-67
2022/09/24 06:47:54;;;;;;;23.57;20.80;;;14.20;99.90;;;;;;5090358;28;20473;-68
2022/09/24 06:50:21;;;;;;;23.57;20.57;;;14.30;99.90;;;;;;5092744;28;20544;-67
2022/09/24 06:52:48;;;;;;;23.70;21.00;;;14.40;99.90;;;;;;5093857;28;20961;-67
2022/09/24 06:55:15;;;;;;;23.47;21.00;;;14.50;99.90;;;;;;5094533;28;21006;-70
2022/09/24 06:57:42;;;;;;;23.90;18.80;;;14.60;99.90;;;;;;5090376;28;20476;-66
2022/09/24 07:00:13;;;;;;;22.43;20.10;;;14.50;99.90;;;;;;5091230;28;20481;-70
2022/09/24 07:02:40;;;;;;;27.60;18.70;;;14.50;99.90;;;;;;5089796;28;20535;-68
2022/09/24 07:05:09;;;;;;;26.73;20.57;;;14.50;99.90;;;;;;5094904;28;20470;-68
2022/09/24 07:07:36;;;;;;;25.50;21.47;;;14.50;99.90;;;;;;5091977;28;20465;-69
2022/09/24 07:10:06;;;;;;;24.27;21.67;;;14.50;99.90;;;;;;5093489;28;20761;-69
2022/09/24 07:12:34;;;;;;;25.33;22.60;;;14.40;99.90;;;;;;5089075;28;20465;-67
2022/09/24 07:15:01;;;;;;;26.43;22.57;;;14.40;99.90;;;;;;5091979;28;20611;-69
2022/09/24 07:17:29;;;;;;;30.13;22.90;;;14.40;99.90;;;;;;5096834;28;20465;-67
2022/09/24 07:19:56;;;;;;;23.70;21.40;;;14.40;99.90;;;;;;5094161;28;20461;-68
2022/09/24 07:22:23;;;;;;;27.00;23.17;;;14.50;99.90;;;;;;5092608;28;20857;-69
2022/09/24 07:24:50;;;;;;;25.30;21.43;;;14.60;99.90;;;;;;5092778;28;20488;-67
2022/09/24 07:27:18;;;;;;;25.30;22.67;;;14.60;99.90;;;;;;5089830;28;20462;-68
2022/09/24 07:29:45;;;;;;;24.73;22.50;;;14.60;99.90;;;;;;5087217;28;20481;-67
2022/09/24 07:32:12;;;;;;;24.77;22.37;;;14.80;99.90;;;;;;5089943;28;20826;-70
2022/09/24 07:34:40;;;;;;;24.27;22.07;;;14.80;99.90;;;;;;5094510;28;20478;-67
2022/09/24 07:37:07;;;;;;;24.27;21.70;;;14.90;99.90;;;;;;5097396;28;20605;-67
2022/09/24 07:39:34;;;;;;;23.90;21.83;;;15.10;99.90;;;;;;5091443;28;20465;-70
2022/09/24 07:42:01;;;;;;;25.00;22.27;;;15.30;99.90;;;;;;5089829;28;20464;-68
2022/09/24 07:44:29;;;;;;;26.43;23.53;;;15.30;99.90;;;;;;5090960;28;20489;-67
2022/09/24 07:46:57;;;;;;;25.47;23.10;;;15.40;99.90;;;;;;5091155;28;20830;-67
2022/09/24 07:49:24;;;;;;;26.10;23.40;;;15.50;99.90;;;;;;5088989;28;20465;-67
2022/09/24 07:51:53;;;;;;;26.43;23.90;;;15.60;99.90;;;;;;5093207;28;20472;-68
2022/09/24 07:54:19;;;;;;;26.20;23.63;;;15.60;99.90;;;;;;5092531;28;20477;-68
2022/09/24 07:56:46;;;;;;;24.67;22.40;;;15.70;99.90;;;;;;5097305;28;20461;-70
2022/09/24 07:59:13;;;;;;;27.20;24.37;;;15.90;99.90;;;;;;5088321;28;20462;-67
2022/09/24 08:01:40;;;;;;;31.07;24.50;;;16.20;99.90;;;;;;5092389;28;20604;-68
2022/09/24 08:04:07;;;;;;;27.90;25.17;;;16.40;99.90;;;;;;5091617;28;20520;-68
2022/09/24 08:06:35;;;;;;;24.23;22.10;;;16.50;99.90;;;;;;5092006;28;20449;-70
2022/09/24 08:09:04;;;;;;;26.73;24.07;;;16.70;99.90;;;;;;5093315;28;20495;-70
2022/09/24 08:11:32;;;;;;;25.47;23.27;;;16.80;99.90;;;;;;5088591;28;20484;-68
2022/09/24 08:13:59;;;;;;;24.33;22.30;;;17.00;99.90;;;;;;5090840;28;20512;-69
2022/09/24 08:16:27;;;;;;;27.30;24.67;;;17.00;99.90;;;;;;5090983;28;20519;-67
2022/09/24 08:18:54;;;;;;;25.57;23.27;;;17.20;99.90;;;;;;5090743;28;20921;-69
2022/09/24 08:21:21;;;;;;;28.63;24.83;;;17.30;99.90;;;;;;5094545;28;20461;-68
2022/09/24 08:23:49;;;;;;;25.73;23.53;;;17.40;99.90;;;;;;5097671;28;20454;-69
2022/09/24 08:26:17;;;;;;;26.67;24.03;;;17.60;99.90;;;;;;5091854;28;20809;-68
2022/09/24 08:28:44;;;;;;;28.97;24.30;;;17.70;99.90;;;;;;5088203;28;20844;-70
2022/09/24 08:31:13;;;;;;;27.43;24.50;;;17.50;99.90;;;;;;5091570;28;20465;-69
2022/09/24 08:33:40;;;;;;;27.57;25.00;;;17.40;99.90;;;;;;5087063;28;20856;-68
2022/09/24 08:36:10;;;;;;;26.07;23.67;;;17.40;99.90;;;;;;5090285;28;20462;-68
2022/09/24 08:38:37;;;;;;;27.27;23.47;;;17.40;99.90;;;;;;5088326;28;20467;-69
2022/09/24 08:41:24;;;;;;;27.03;24.63;;;17.60;99.90;;;;;;5092649;28;21038;-68
2022/09/24 08:43:58;;;;;;;28.00;25.20;;;17.60;99.90;;;;;;5087035;28;20553;-68
2022/09/24 08:49:19;;;;;;;26.33;23.93;;;18.20;99.90;;;;;;5086087;28;20885;-67
2022/09/24 08:51:53;;;;;;;27.80;25.03;;;18.20;99.90;;;;;;5087677;28;20466;-67
2022/09/24 08:54:23;;;;;;;26.90;24.07;;;18.30;99.90;;;;;;5092280;28;20481;-68
2022/09/24 08:56:54;;;;;;;25.97;23.43;;;18.30;99.90;;;;;;5090211;28;20462;-67
2022/09/24 08:59:27;;;;;;;25.67;23.13;;;18.60;99.90;;;;;;5086806;28;20455;-68
2022/09/24 09:02:02;;;;;;;29.40;23.10;;;18.60;99.90;;;;;;5089247;28;20584;-68
2022/09/24 09:04:41;;;;;;;26.47;23.97;;;18.60;99.90;;;;;;5089622;28;20460;-67
2022/09/24 09:07:18;;;;;;;24.97;22.60;;;18.40;99.90;;;;;;5093275;28;20468;-67
2022/09/24 09:09:50;;;;;;;25.20;22.80;;;18.80;99.90;;;;;;5090229;28;20461;-67
2022/09/24 09:12:25;;;;;;;25.43;23.10;;;19.20;99.90;;;;;;5090171;28;21036;-68
2022/09/24 09:14:58;;;;;;;25.77;23.47;;;19.20;99.90;;;;;;5092671;28;20990;-69
2022/09/24 09:17:34;;;;;;;24.67;22.30;;;19.60;99.90;;;;;;5091531;28;20462;-67
2022/09/24 09:20:05;;;;;;;27.00;22.43;;;19.60;99.90;;;;;;5090877;28;20462;-68
2022/09/24 09:22:39;;;;;;;27.07;24.37;;;19.60;99.90;;;;;;5091842;28;20515;-68
2022/09/24 09:25:18;;;;;;;26.27;22.40;;;19.90;99.90;;;;;;5096630;28;20552;-67
2022/09/24 09:27:49;;;;;;;25.63;23.03;;;20.20;99.90;;;;;;5095102;28;20556;-68
2022/09/24 09:30:19;;;;;;;25.33;23.00;;;19.90;99.90;;;;;;5094648;28;20552;-68
2022/09/24 09:33:04;;;;;;;23.10;21.23;;;20.10;99.90;;;;;;5096538;28;20548;-68
2022/09/24 09:35:39;;;;;;;25.10;22.63;;;20.20;99.90;;;;;;5095064;28;20493;-68
2022/09/24 09:38:18;;;;;;;23.20;21.07;;;19.90;99.90;;;;;;5093727;28;20457;-68
2022/09/24 09:40:52;;;;;;;24.73;22.60;;;20.20;99.90;;;;;;5090978;28;20458;-68
2022/09/24 09:43:21;;;;;;;23.27;21.20;;;20.50;99.90;;;;;;5094342;28;20820;-68
2022/09/24 09:46:03;;;;;;;26.20;22.13;;;20.90;99.90;;;;;;5093350;28;20454;-68
2022/09/24 09:48:41;;;;;;;24.73;22.23;;;20.80;99.90;;;;;;5088630;28;20481;-67
2022/09/24 09:51:16;;;;;;;24.67;22.37;;;21.00;99.90;;;;;;5099743;28;20707;-69
2022/09/24 09:53:55;;;;;;;24.20;21.70;;;21.20;99.90;;;;;;5091876;28;20469;-67
2022/09/24 09:56:26;;;;;;;25.10;22.90;;;21.50;99.90;;;;;;5093521;28;20493;-68
2022/09/24 09:59:05;;;;;;;24.17;22.10;;;21.30;99.90;;;;;;5092490;28;20466;-67
2022/09/24 10:01:34;;;;;;;23.77;21.83;;;20.90;99.90;;;;;;5096735;28;20453;-67
2022/09/24 10:04:03;;;;;;;25.27;22.97;;;20.70;99.90;;;;;;5098476;28;20469;-67
2022/09/24 10:06:32;;;;;;;25.23;23.03;;;20.70;99.90;;;;;;5094250;28;20473;-67
2022/09/24 10:09:13;;;;;;;24.30;22.17;;;20.70;99.90;;;;;;5090110;28;20459;-67
2022/09/24 10:11:41;;;;;;;25.07;23.00;;;20.70;99.90;;;;;;5097221;28;20569;-66
2022/09/24 10:14:13;;;;;;;26.57;23.90;;;20.20;99.90;;;;;;5092747;28;20626;-67
2022/09/24 10:16:43;;;;;;;25.00;22.73;;;20.10;99.90;;;;;;5093250;28;20541;-69
2022/09/24 10:19:17;;;;;;;28.17;22.30;;;20.20;99.90;;;;;;5096544;28;20457;-68
2022/09/24 10:21:44;;;;;;;24.10;21.97;;;20.10;99.90;;;;;;5094780;28;20515;-68
2022/09/24 10:24:16;;;;;;;26.90;24.60;;;19.30;99.90;;;;;;5094660;28;20552;-67
2022/09/24 10:26:46;;;;;;;25.67;23.60;;;19.30;99.90;;;;;;5093217;28;20458;-68
2022/09/24 10:32:02;;;;;;;23.50;21.60;;;20.00;99.90;;;;;;5087919;28;20462;-69
2022/09/24 10:34:30;;;;;;;24.47;22.50;;;20.00;99.90;;;;;;5093211;28;20457;-69
2022/09/24 10:37:01;;;;;;;25.60;22.93;;;20.10;99.90;;;;;;5089308;28;20470;-70
2022/09/24 10:39:30;;;;;;;25.77;23.33;;;19.80;99.90;;;;;;5093650;28;20536;-68
2022/09/24 10:41:57;;;;;;;23.53;21.53;;;20.10;99.90;;;;;;5092631;28;20466;-68
2022/09/24 10:44:32;;;;;;;22.70;20.90;;;19.90;99.90;;;;;;5090613;28;20470;-68
2022/09/24 10:47:23;;;;;;;23.37;21.47;;;19.80;99.90;;;;;;5095114;28;20449;-67
2022/09/24 10:50:02;;;;;;;24.60;22.40;;;20.20;99.90;;;;;;5084963;28;20461;-68
2022/09/24 10:52:43;;;;;;;20.73;19.13;;;20.30;99.90;;;;;;5090722;28;20481;-69
2022/09/24 10:55:25;;;;;;;22.47;20.70;;;20.00;99.90;;;;;;5092840;28;20485;-69
2022/09/24 10:58:02;;;;;;;22.60;20.70;;;19.90;99.90;;;;;;5091864;28;21615;-68
2022/09/24 11:00:37;;;;;;;23.00;21.10;;;20.30;99.90;;;;;;5088925;28;20477;-67
2022/09/24 11:03:46;;;;;;;21.60;19.83;;;20.70;99.90;;;;;;5088960;28;20452;-67
2022/09/24 11:06:22;;;;;;;22.03;20.30;;;20.30;99.90;;;;;;5075044;28;20485;-69
2022/09/24 11:09:01;;;;;;;20.53;19.00;;;20.00;99.90;;;;;;5089361;28;20458;-68
2022/09/24 11:11:39;;;;;;;21.90;20.10;;;20.40;99.90;;;;;;5091341;28;20484;-67
2022/09/24 11:14:21;;;;;;;22.77;20.73;;;20.90;99.90;;;;;;5093103;28;20466;-71
2022/09/24 11:17:05;;;;;;;21.40;19.50;;;21.10;99.90;;;;;;5091905;28;21026;-69
2022/09/24 11:19:50;;;;;;;21.37;19.67;;;20.70;99.90;;;;;;5090145;28;20475;-68
2022/09/24 11:22:23;;;;;;;19.83;18.43;;;20.00;99.90;;;;;;5096684;28;20458;-68
2022/09/24 11:25:09;;;;;;;21.03;19.40;;;20.10;99.90;;;;;;5092400;28;20448;-70
2022/09/24 11:27:51;;;;;;;20.07;18.40;;;19.90;99.90;;;;;;5089718;28;20465;-68
2022/09/24 11:30:20;;;;;;;20.90;19.50;;;20.00;99.90;;;;;;5090389;28;20446;-68
2022/09/24 11:33:06;;;;;;;20.63;18.73;;;20.10;99.90;;;;;;5092588;28;20487;-70
2022/09/24 11:35:52;;;;;;;19.80;18.40;;;20.50;99.90;;;;;;5090320;28;20480;-68
2022/09/24 11:38:33;;;;;;;20.97;19.33;;;20.80;99.90;;;;;;5093436;28;20452;-70
2022/09/24 11:41:12;;;;;;;19.63;18.23;;;20.80;99.90;;;;;;5088504;28;20464;-70
2022/09/24 11:43:56;;;;;;;20.70;19.10;;;20.90;99.90;;;;;;5090030;28;20465;-68
2022/09/24 11:46:33;;;;;;;20.37;18.97;;;20.90;99.90;;;;;;5087324;28;20877;-68
2022/09/24 11:49:28;;;;;;;19.97;18.30;;;20.80;99.90;;;;;;5089160;28;20902;-68
2022/09/24 11:52:04;;;;;;;18.90;17.70;;;20.80;99.90;;;;;;5088877;28;21175;-68
2022/09/24 11:54:38;;;;;;;18.90;17.40;;;21.10;99.90;;;;;;5093523;28;20539;-68
2022/09/24 11:57:12;;;;;;;18.70;17.33;;;21.40;99.90;;;;;;5091940;28;20486;-68
2022/09/24 11:59:47;;;;;;;19.60;18.30;;;21.00;99.90;;;;;;5090663;28;20465;-68
2022/09/24 12:02:19;;;;;;;18.53;17.40;;;21.00;99.90;;;;;;5089376;28;20821;-68
2022/09/24 12:04:53;;;;;;;18.93;17.73;;;20.90;99.90;;;;;;5087688;28;20457;-68
2022/09/24 12:07:26;;;;;;;19.03;17.67;;;21.00;99.90;;;;;;5095275;28;20494;-69
2022/09/24 12:09:59;;;;;;;19.37;18.07;;;20.70;99.90;;;;;;5086643;28;20461;-68
2022/09/24 12:12:29;;;;;;;18.73;17.33;;;20.20;99.90;;;;;;5094249;28;20535;-70
2022/09/24 12:15:00;;;;;;;19.37;17.90;;;20.20;99.90;;;;;;5091112;28;21144;-68
2022/09/24 12:17:33;;;;;;;19.03;17.53;;;20.40;99.90;;;;;;5092449;28;20498;-68
2022/09/24 12:20:05;;;;;;;18.40;17.00;;;20.60;99.90;;;;;;5092794;28;20461;-67
2022/09/24 12:22:35;;;;;;;18.63;17.30;;;20.90;99.90;;;;;;5092438;28;20873;-68
2022/09/24 12:25:02;;;;;;;18.60;17.40;;;21.00;99.90;;;;;;5090406;28;21182;-67
2022/09/24 12:27:34;;;;;;;18.53;17.13;;;20.70;99.90;;;;;;5095569;28;20548;-70
2022/09/24 12:32:56;;;;;;;19.23;17.63;;;20.40;99.90;;;;;;5096522;28;20474;-68
2022/09/24 12:35:47;;;;;;;18.97;17.40;;;20.70;99.90;;;;;;5088991;28;20470;-73
2022/09/24 12:38:26;;;;;;;18.47;16.87;;;20.60;99.90;;;;;;5088586;28;20461;-70
2022/09/24 12:41:23;;;;;;;20.23;18.47;;;20.70;99.90;;;;;;5090287;28;20453;-68
2022/09/24 12:43:55;;;;;;;19.60;18.03;;;20.90;99.90;;;;;;5087439;28;20464;-68
2022/09/24 12:46:25;;;;;;;20.20;18.70;;;20.60;99.90;;;;;;5088061;28;20501;-69
2022/09/24 12:48:54;;;;;;;20.40;18.90;;;20.10;99.90;;;;;;5092321;28;20462;-68
2022/09/24 12:51:22;;;;;;;20.40;18.43;;;20.00;99.90;;;;;;5095161;28;20457;-68
2022/09/24 12:54:05;;;;;;;19.43;18.13;;;20.10;99.90;;;;;;5094471;28;20456;-68
2022/09/24 12:56:33;;;;;;;20.33;18.63;;;20.20;99.90;;;;;;5098387;28;20504;-68
2022/09/24 12:59:04;;;;;;;20.33;18.50;;;20.20;99.90;;;;;;5094482;28;20515;-68
2022/09/24 13:01:32;;;;;;;20.97;19.10;;;20.20;99.90;;;;;;5092859;28;20864;-68
2022/09/24 13:04:27;;;;;;;21.30;19.57;;;20.30;99.90;;;;;;5095554;28;20461;-68
2022/09/24 13:06:56;;;;;;;20.33;18.80;;;20.40;99.90;;;;;;5093227;28;20466;-68